Time;durP1;ratioP1;P1;durP2;ratioP2;P2;SDS_P1;SDS_P2;PMS_P1;PMS_P2;Temp;Humidity;BMP_temperature;BMP_pressure;BME280_temperature;BME280_humidity;BME280_pressure;Samples;Min_cycle;Max_cycle;Signal;HPM_P1;HPM_P2
2023/06/23 00:01:53;;;;;;;0.10;0.10;;;17.40;71.20;;;;;;5053647;28;20200;-56
2023/06/23 00:04:25;;;;;;;0.00;0.00;;;17.40;71.20;;;;;;5053889;28;20245;-55
2023/06/23 00:06:55;;;;;;;0.10;0.10;;;17.40;71.10;;;;;;5054068;28;20245;-54
2023/06/23 00:09:26;;;;;;;0.08;0.08;;;17.40;71.10;;;;;;5053792;28;20212;-56
2023/06/23 00:11:56;;;;;;;0.10;0.10;;;17.40;71.10;;;;;;5053347;28;20200;-56
2023/06/23 00:14:27;;;;;;;0.10;0.10;;;17.40;71.00;;;;;;5053465;28;20245;-55
2023/06/23 00:16:59;;;;;;;0.00;0.00;;;17.40;71.00;;;;;;5053514;28;20658;-56
2023/06/23 00:19:31;;;;;;;0.00;0.00;;;17.40;70.90;;;;;;5053472;28;20195;-54
2023/06/23 00:22:02;;;;;;;0.05;0.05;;;17.40;70.90;;;;;;5053867;28;20554;-55
2023/06/23 00:24:33;;;;;;;0.00;0.00;;;17.40;70.80;;;;;;5053739;28;20202;-56
2023/06/23 00:27:04;;;;;;;0.10;0.10;;;17.50;70.90;;;;;;5053689;28;20195;-56
2023/06/23 00:29:35;;;;;;;0.00;0.00;;;17.40;70.80;;;;;;5053954;28;20196;-57
2023/06/23 00:32:07;;;;;;;0.05;0.05;;;17.50;70.80;;;;;;5053912;28;20245;-56
2023/06/23 00:34:38;;;;;;;0.00;0.00;;;17.50;70.70;;;;;;5053626;28;20203;-56
2023/06/23 00:37:09;;;;;;;0.00;0.00;;;17.50;70.70;;;;;;5053368;28;20269;-56
2023/06/23 00:39:41;;;;;;;0.10;0.10;;;17.50;70.70;;;;;;5053850;28;20200;-53
2023/06/23 00:42:12;;;;;;;0.00;0.00;;;17.50;70.70;;;;;;5053407;28;20218;-56
2023/06/23 00:44:42;;;;;;;0.10;0.10;;;17.50;70.60;;;;;;5054038;28;20669;-56
2023/06/23 00:47:16;;;;;;;0.10;0.10;;;17.50;70.60;;;;;;5053093;28;20617;-53
2023/06/23 00:49:48;;;;;;;0.10;0.10;;;17.50;70.60;;;;;;5053015;28;20206;-55
2023/06/23 00:52:19;;;;;;;0.10;0.10;;;17.60;70.70;;;;;;5052973;28;20223;-56
2023/06/23 00:54:50;;;;;;;0.10;0.10;;;17.50;70.50;;;;;;5053291;28;20200;-56
2023/06/23 00:57:21;;;;;;;0.10;0.10;;;17.50;70.50;;;;;;5052812;28;20227;-55
2023/06/23 00:59:52;;;;;;;0.10;0.10;;;17.60;70.50;;;;;;5053146;28;20278;-53
2023/06/23 01:02:27;;;;;;;0.10;0.10;;;17.50;70.50;;;;;;5053157;28;20272;-56
2023/06/23 01:05:00;;;;;;;0.03;0.03;;;17.60;70.50;;;;;;5053473;28;20198;-56
2023/06/23 01:07:41;;;;;;;0.10;0.10;;;17.60;70.40;;;;;;5053086;28;20669;-52
2023/06/23 01:10:18;;;;;;;0.10;0.10;;;17.60;70.40;;;;;;5052509;28;20192;-55
2023/06/23 01:12:58;;;;;;;0.13;0.13;;;17.60;70.40;;;;;;5052676;28;20203;-56
2023/06/23 01:15:34;;;;;;;0.10;0.10;;;17.60;70.40;;;;;;5052887;28;20595;-55
2023/06/23 01:18:12;;;;;;;0.10;0.10;;;17.60;70.30;;;;;;5051715;28;20432;-56
2023/06/23 01:20:45;;;;;;;0.10;0.10;;;17.60;70.30;;;;;;5052411;28;20199;-56
2023/06/23 01:23:43;;;;;;;0.10;0.10;;;17.60;70.30;;;;;;5052482;28;20195;-56
2023/06/23 01:26:27;;;;;;;0.10;0.10;;;17.60;70.30;;;;;;5052323;28;20735;-56
2023/06/23 01:29:02;;;;;;;0.10;0.10;;;17.60;70.20;;;;;;5052076;28;20270;-56
2023/06/23 01:31:39;;;;;;;0.10;0.10;;;17.60;70.20;;;;;;5052568;28;20260;-55
2023/06/23 01:34:12;;;;;;;0.00;0.00;;;17.60;70.20;;;;;;5052652;28;20199;-56
2023/06/23 01:36:44;;;;;;;0.10;0.10;;;17.60;70.30;;;;;;5052325;28;20655;-57
2023/06/23 01:39:19;;;;;;;0.10;0.10;;;17.60;70.20;;;;;;5052269;28;20219;-56
2023/06/23 01:41:54;;;;;;;0.10;0.10;;;17.60;70.20;;;;;;5052650;28;20195;-57
2023/06/23 01:44:27;;;;;;;0.10;0.10;;;17.70;70.30;;;;;;5053027;28;20198;-56
2023/06/23 01:47:00;;;;;;;0.10;0.10;;;17.70;70.30;;;;;;5052181;28;20617;-56
2023/06/23 01:49:36;;;;;;;0.00;0.00;;;17.70;70.30;;;;;;5052170;28;20967;-57
2023/06/23 01:52:08;;;;;;;0.05;0.05;;;17.70;70.30;;;;;;5051721;28;20269;-56
2023/06/23 01:54:42;;;;;;;0.10;0.10;;;17.70;70.30;;;;;;5051792;28;20222;-57
2023/06/23 01:57:17;;;;;;;0.10;0.10;;;17.70;70.30;;;;;;5052009;28;20195;-56
2023/06/23 01:59:51;;;;;;;0.00;0.00;;;17.70;70.20;;;;;;5052540;28;20206;-55
2023/06/23 02:02:23;;;;;;;0.10;0.10;;;17.70;70.20;;;;;;5051299;28;20717;-56
2023/06/23 02:04:54;;;;;;;0.10;0.10;;;17.70;70.20;;;;;;5051795;28;20206;-57
2023/06/23 02:07:27;;;;;;;0.05;0.05;;;17.70;70.20;;;;;;5051941;28;20293;-56
2023/06/23 02:10:00;;;;;;;0.10;0.10;;;17.70;70.20;;;;;;5051503;28;20232;-54
2023/06/23 02:12:32;;;;;;;0.10;0.10;;;17.70;70.20;;;;;;5051794;28;20253;-57
2023/06/23 02:15:05;;;;;;;0.10;0.10;;;17.70;70.10;;;;;;5051971;28;20253;-56
2023/06/23 02:17:38;;;;;;;0.00;0.00;;;17.70;70.10;;;;;;5051847;28;20277;-55
2023/06/23 02:20:16;;;;;;;0.10;0.10;;;17.70;70.10;;;;;;5051980;28;20225;-56
2023/06/23 02:22:51;;;;;;;0.10;0.10;;;17.70;70.10;;;;;;5051347;28;20651;-56
2023/06/23 02:25:24;;;;;;;0.00;0.00;;;17.70;70.00;;;;;;5050910;28;20191;-56
2023/06/23 02:27:56;;;;;;;0.10;0.10;;;17.70;70.00;;;;;;5051378;28;20211;-56
2023/06/23 02:30:29;;;;;;;0.20;0.20;;;17.70;70.10;;;;;;5051646;28;20191;-56
2023/06/23 02:32:59;;;;;;;0.10;0.10;;;17.70;70.10;;;;;;5051212;28;20526;-56
2023/06/23 02:35:30;;;;;;;0.08;0.08;;;17.70;70.00;;;;;;5051402;28;20246;-55
2023/06/23 02:38:04;;;;;;;0.10;0.10;;;17.70;70.10;;;;;;5051455;28;20284;-54
2023/06/23 02:40:36;;;;;;;0.00;0.00;;;17.70;70.00;;;;;;5051491;28;20202;-56
2023/06/23 02:43:12;;;;;;;0.10;0.10;;;17.80;70.00;;;;;;5051753;28;20203;-53
2023/06/23 02:45:47;;;;;;;0.10;0.10;;;17.80;70.10;;;;;;5051452;28;20206;-55
2023/06/23 02:48:20;;;;;;;0.08;0.08;;;17.80;70.00;;;;;;5051170;28;20222;-56
2023/06/23 02:50:52;;;;;;;0.10;0.10;;;17.80;70.00;;;;;;5051597;28;20199;-51
2023/06/23 02:53:26;;;;;;;0.10;0.10;;;17.80;70.00;;;;;;5051328;28;20253;-52
2023/06/23 02:56:02;;;;;;;0.10;0.10;;;17.80;70.00;;;;;;5051416;28;20199;-54
2023/06/23 02:58:34;;;;;;;0.10;0.10;;;17.80;70.00;;;;;;5051046;28;20231;-55
2023/06/23 03:01:09;;;;;;;0.10;0.10;;;17.80;69.90;;;;;;5050775;28;20191;-56
2023/06/23 03:03:41;;;;;;;0.10;0.10;;;17.80;69.90;;;;;;5048648;28;20195;-55
2023/06/23 03:06:20;;;;;;;0.10;0.10;;;17.80;69.90;;;;;;5051398;28;20651;-53
2023/06/23 03:08:51;;;;;;;0.10;0.10;;;17.80;69.90;;;;;;5051007;28;20221;-56
2023/06/23 03:11:22;;;;;;;0.10;0.10;;;17.80;69.90;;;;;;5051228;28;20632;-56
2023/06/23 03:13:52;;;;;;;0.10;0.10;;;17.80;69.90;;;;;;5054283;28;20199;-56
2023/06/23 03:16:43;;;;;;;0.10;0.10;;;17.80;69.90;;;;;;5055102;28;20261;-56
2023/06/23 03:19:22;;;;;;;0.10;0.10;;;17.80;69.90;;;;;;5054944;28;20223;-56
2023/06/23 03:21:59;;;;;;;0.00;0.00;;;17.80;69.80;;;;;;5055049;28;20192;-56
2023/06/23 03:24:32;;;;;;;0.10;0.10;;;17.80;69.80;;;;;;5054134;28;20199;-56
2023/06/23 03:27:08;;;;;;;0.10;0.10;;;17.80;69.80;;;;;;5055599;28;20206;-57
2023/06/23 03:29:42;;;;;;;0.10;0.10;;;17.80;69.80;;;;;;5034667;28;20192;-57
2023/06/23 03:32:17;;;;;;;0.10;0.10;;;17.80;69.80;;;;;;5053588;28;20206;-57
2023/06/23 03:35:00;;;;;;;0.10;0.10;;;17.80;69.80;;;;;;5061535;28;20724;-56
2023/06/23 03:37:32;;;;;;;0.20;0.20;;;17.80;69.80;;;;;;5066138;28;20222;-56
2023/06/23 03:40:07;;;;;;;0.10;0.10;;;17.80;70.50;;;;;;5073172;28;20723;-56
2023/06/23 03:42:48;;;;;;;0.10;0.10;;;17.80;69.80;;;;;;5054421;28;20203;-56
2023/06/23 03:45:20;;;;;;;0.00;0.00;;;17.80;69.80;;;;;;5054499;28;20211;-56
2023/06/23 03:47:56;;;;;;;0.10;0.10;;;17.80;69.70;;;;;;5052844;28;20227;-54
2023/06/23 03:50:31;;;;;;;0.10;0.10;;;17.80;69.70;;;;;;5053718;28;20666;-56
2023/06/23 03:53:03;;;;;;;0.10;0.10;;;17.80;69.70;;;;;;5053491;28;20195;-55
2023/06/23 03:55:35;;;;;;;0.10;0.10;;;17.80;69.70;;;;;;5052810;28;20607;-55
2023/06/23 03:58:08;;;;;;;0.10;0.10;;;17.80;69.60;;;;;;5052595;28;20219;-57
2023/06/23 04:00:41;;;;;;;0.10;0.10;;;17.80;69.60;;;;;;5053222;28;20204;-56
2023/06/23 04:03:14;;;;;;;0.10;0.10;;;17.80;69.60;;;;;;5052950;28;20191;-57
2023/06/23 04:05:46;;;;;;;0.10;0.10;;;17.80;69.60;;;;;;5053576;28;20199;-55
2023/06/23 04:08:18;;;;;;;0.10;0.10;;;17.80;69.60;;;;;;5053060;28;20274;-57
2023/06/23 04:10:50;;;;;;;0.00;0.00;;;17.80;69.60;;;;;;5053606;28;20200;-55
2023/06/23 04:13:22;;;;;;;0.10;0.10;;;17.80;69.60;;;;;;5052704;28;20250;-55
2023/06/23 04:15:55;;;;;;;0.20;0.20;;;17.80;69.60;;;;;;5053061;28;20196;-54
2023/06/23 04:18:29;;;;;;;0.10;0.10;;;17.80;69.60;;;;;;5053598;28;20226;-54
2023/06/23 04:21:00;;;;;;;0.10;0.10;;;17.80;69.50;;;;;;5053315;28;20192;-56
2023/06/23 04:23:31;;;;;;;0.00;0.00;;;17.80;69.50;;;;;;5053645;28;20605;-54
2023/06/23 04:26:03;;;;;;;0.10;0.10;;;17.80;69.50;;;;;;5052501;28;20531;-56
2023/06/23 04:28:35;;;;;;;0.10;0.10;;;17.80;69.50;;;;;;5052787;28;20222;-54
2023/06/23 04:31:10;;;;;;;0.10;0.10;;;17.80;69.50;;;;;;5053675;28;20253;-56
2023/06/23 04:33:42;;;;;;;0.00;0.00;;;17.80;69.50;;;;;;5053387;28;20244;-56
2023/06/23 04:36:16;;;;;;;0.10;0.10;;;17.80;69.40;;;;;;5053150;28;20320;-56
2023/06/23 04:38:55;;;;;;;0.05;0.05;;;17.80;69.40;;;;;;5052785;28;20280;-53
2023/06/23 04:41:29;;;;;;;0.00;0.00;;;17.80;69.50;;;;;;5053391;28;20203;-56
2023/06/23 04:44:03;;;;;;;0.10;0.10;;;17.80;69.40;;;;;;5052399;28;20191;-56
2023/06/23 04:46:37;;;;;;;0.05;0.05;;;17.80;69.40;;;;;;5052927;28;20245;-56
2023/06/23 04:49:12;;;;;;;0.10;0.10;;;17.80;69.40;;;;;;5052789;28;20281;-56
2023/06/23 04:51:46;;;;;;;0.00;0.00;;;17.80;69.40;;;;;;5052979;28;20245;-55
2023/06/23 04:54:21;;;;;;;0.10;0.10;;;17.80;69.40;;;;;;5052977;28;20718;-52
2023/06/23 04:56:59;;;;;;;0.10;0.10;;;17.80;69.40;;;;;;5052379;28;20199;-55
2023/06/23 04:59:36;;;;;;;0.10;0.10;;;17.80;69.40;;;;;;5051316;28;20234;-56
2023/06/23 05:02:08;;;;;;;0.10;0.10;;;17.70;69.30;;;;;;5050820;28;20191;-54
2023/06/23 05:04:43;;;;;;;0.10;0.10;;;17.80;69.30;;;;;;5052210;28;20199;-55
2023/06/23 05:07:16;;;;;;;0.00;0.00;;;17.80;69.30;;;;;;5052295;28;20198;-57
2023/06/23 05:09:52;;;;;;;0.10;0.10;;;17.80;69.30;;;;;;5052787;28;20211;-56
2023/06/23 05:12:24;;;;;;;0.10;0.10;;;17.70;69.30;;;;;;5051832;28;20199;-53
2023/06/23 05:14:56;;;;;;;0.10;0.10;;;17.80;69.30;;;;;;5052854;28;20196;-52
2023/06/23 05:17:28;;;;;;;0.00;0.00;;;17.80;69.40;;;;;;5051795;28;20280;-53
2023/06/23 05:20:01;;;;;;;0.00;0.00;;;17.80;69.40;;;;;;5052483;28;20215;-55
2023/06/23 05:22:32;;;;;;;0.10;0.10;;;17.80;69.40;;;;;;5052840;28;20195;-49
2023/06/23 05:25:03;;;;;;;0.00;0.00;;;17.80;69.40;;;;;;5051687;28;20195;-53
2023/06/23 05:27:36;;;;;;;0.03;0.03;;;17.80;69.30;;;;;;5052303;28;20582;-49
2023/06/23 05:30:10;;;;;;;0.10;0.10;;;17.80;69.30;;;;;;5051912;28;20195;-52
2023/06/23 05:32:43;;;;;;;0.00;0.00;;;17.80;69.30;;;;;;5052024;28;20248;-54
2023/06/23 05:35:17;;;;;;;0.17;0.17;;;17.80;69.40;;;;;;5051976;28;20265;-55
2023/06/23 05:37:49;;;;;;;0.10;0.10;;;17.80;69.30;;;;;;5051601;28;20211;-53
2023/06/23 05:40:20;;;;;;;0.10;0.10;;;17.80;69.30;;;;;;5051309;28;20625;-52
2023/06/23 05:42:58;;;;;;;0.10;0.10;;;17.80;69.30;;;;;;5051915;28;20196;-52
2023/06/23 05:45:29;;;;;;;0.10;0.10;;;17.80;69.30;;;;;;5051265;28;20203;-50
2023/06/23 05:48:04;;;;;;;0.10;0.10;;;17.80;69.30;;;;;;5051314;28;20687;-55
2023/06/23 05:50:38;;;;;;;0.10;0.10;;;17.80;69.20;;;;;;5052274;28;20516;-51
2023/06/23 05:53:11;;;;;;;0.08;0.08;;;17.80;69.30;;;;;;5051226;28;20667;-54
2023/06/23 05:55:45;;;;;;;0.10;0.10;;;17.80;69.20;;;;;;5051128;28;20192;-54
2023/06/23 05:58:18;;;;;;;0.00;0.00;;;17.80;69.30;;;;;;5051031;28;20771;-54
2023/06/23 06:00:57;;;;;;;0.00;0.00;;;17.80;69.20;;;;;;5040099;28;20195;-50
2023/06/23 06:03:32;;;;;;;0.10;0.10;;;17.80;69.20;;;;;;5050600;28;20195;-55
2023/06/23 06:06:07;;;;;;;0.10;0.10;;;17.80;69.20;;;;;;5051835;28;20203;-52
2023/06/23 06:08:39;;;;;;;0.10;0.10;;;17.80;69.20;;;;;;5050603;28;20222;-53
2023/06/23 06:11:11;;;;;;;0.08;0.08;;;17.80;69.20;;;;;;5051396;28;20199;-50
2023/06/23 06:13:45;;;;;;;0.10;0.10;;;17.80;69.10;;;;;;5051257;28;20303;-53
2023/06/23 06:16:17;;;;;;;0.10;0.10;;;17.80;69.10;;;;;;5051166;28;20196;-51
2023/06/23 06:18:48;;;;;;;0.10;0.10;;;17.80;69.10;;;;;;5050765;28;20475;-53
2023/06/23 06:21:22;;;;;;;0.05;0.05;;;17.70;69.00;;;;;;5050741;28;20686;-56
2023/06/23 06:23:55;;;;;;;0.03;0.03;;;17.80;69.00;;;;;;5050359;28;20615;-49
2023/06/23 06:26:26;;;;;;;0.10;0.10;;;17.70;69.00;;;;;;5050765;28;20191;-53
2023/06/23 06:28:58;;;;;;;0.10;0.10;;;17.80;69.30;;;;;;5051046;28;20211;-50
2023/06/23 06:31:31;;;;;;;0.00;0.00;;;17.80;69.10;;;;;;5050396;28;20202;-53
2023/06/23 06:34:03;;;;;;;0.10;0.10;;;17.80;69.10;;;;;;5051250;28;20647;-53
2023/06/23 06:36:37;;;;;;;0.03;0.03;;;17.80;69.10;;;;;;5050615;28;20221;-51
2023/06/23 06:39:08;;;;;;;0.10;0.10;;;17.80;69.10;;;;;;5050909;28;20215;-53
2023/06/23 06:41:41;;;;;;;0.00;0.00;;;17.70;69.10;;;;;;5051127;28;20600;-51
2023/06/23 06:44:11;;;;;;;0.03;0.03;;;17.70;69.10;;;;;;5050890;28;20222;-53
2023/06/23 06:46:45;;;;;;;0.03;0.03;;;17.80;69.10;;;;;;5050828;28;20250;-52
2023/06/23 06:49:16;;;;;;;0.10;0.10;;;17.70;69.10;;;;;;5054520;28;20225;-49
2023/06/23 06:51:51;;;;;;;0.00;0.00;;;17.70;69.10;;;;;;5054425;28;20242;-51
2023/06/23 06:54:22;;;;;;;0.10;0.10;;;17.80;69.10;;;;;;5053681;28;20221;-52
2023/06/23 06:56:53;;;;;;;0.00;0.00;;;17.80;69.00;;;;;;5054898;28;20304;-50
2023/06/23 06:59:23;;;;;;;0.10;0.10;;;17.70;69.00;;;;;;5054463;28;20227;-54
2023/06/23 07:01:54;;;;;;;0.10;0.10;;;17.70;69.00;;;;;;5055205;28;20199;-50
2023/06/23 07:04:26;;;;;;;0.05;0.05;;;17.70;68.90;;;;;;5055060;28;20646;-55
2023/06/23 07:06:59;;;;;;;0.10;0.10;;;17.70;68.90;;;;;;5053038;28;20192;-52
2023/06/23 07:09:29;;;;;;;0.00;0.00;;;17.70;69.00;;;;;;5054836;28;20215;-51
2023/06/23 07:12:01;;;;;;;0.00;0.00;;;17.70;68.90;;;;;;5053780;28;20484;-55
2023/06/23 07:14:32;;;;;;;0.00;0.00;;;17.70;69.00;;;;;;5054199;28;20191;-54
2023/06/23 07:17:02;;;;;;;0.10;0.10;;;17.80;69.00;;;;;;5053840;28;20192;-53
2023/06/23 07:19:33;;;;;;;0.10;0.10;;;17.80;69.10;;;;;;5052596;28;20219;-52
2023/06/23 07:22:06;;;;;;;0.10;0.10;;;17.70;69.00;;;;;;5053900;28;20200;-54
2023/06/23 07:24:36;;;;;;;0.10;0.10;;;17.70;69.00;;;;;;5054943;28;20261;-53
2023/06/23 07:27:08;;;;;;;0.00;0.00;;;17.70;69.00;;;;;;5054609;28;20196;-49
2023/06/23 07:29:38;;;;;;;0.10;0.10;;;17.70;69.00;;;;;;5054844;28;20204;-54
2023/06/23 07:32:10;;;;;;;0.00;0.00;;;17.70;68.90;;;;;;5052008;28;20192;-53
2023/06/23 07:34:40;;;;;;;0.10;0.10;;;17.70;68.90;;;;;;5054097;28;20249;-50
2023/06/23 07:37:13;;;;;;;0.10;0.10;;;17.70;69.60;;;;;;5053769;28;20198;-51
2023/06/23 07:39:43;;;;;;;0.10;0.10;;;17.70;68.80;;;;;;5054157;28;20272;-50
2023/06/23 07:42:14;;;;;;;0.10;0.10;;;17.70;68.80;;;;;;5054935;28;20200;-50
2023/06/23 07:44:45;;;;;;;0.10;0.10;;;17.70;68.80;;;;;;5055077;28;20195;-51
2023/06/23 07:47:16;;;;;;;0.05;0.05;;;17.70;68.90;;;;;;5054108;28;20208;-53
2023/06/23 07:49:46;;;;;;;0.10;0.10;;;17.70;68.80;;;;;;5054266;28;20238;-50
2023/06/23 07:52:19;;;;;;;0.08;0.08;;;17.80;68.90;;;;;;5054322;28;20195;-51
2023/06/23 07:54:49;;;;;;;0.10;0.10;;;17.70;68.80;;;;;;5054444;28;20203;-51
2023/06/23 07:57:21;;;;;;;0.10;0.10;;;17.70;68.80;;;;;;5051682;28;20257;-50
2023/06/23 07:59:52;;;;;;;0.10;0.10;;;17.70;68.80;;;;;;5052909;28;20314;-51
2023/06/23 08:02:22;;;;;;;0.03;0.03;;;17.70;68.80;;;;;;5054165;28;20195;-53
2023/06/23 08:04:53;;;;;;;0.00;0.00;;;17.70;68.80;;;;;;5053054;28;20283;-52
2023/06/23 08:07:25;;;;;;;0.00;0.00;;;17.70;68.80;;;;;;5053215;28;20199;-50
2023/06/23 08:09:56;;;;;;;0.10;0.10;;;17.70;68.80;;;;;;5053197;28;20199;-53
2023/06/23 08:12:26;;;;;;;0.00;0.00;;;17.70;68.80;;;;;;5053822;28;20203;-51
2023/06/23 08:14:57;;;;;;;0.10;0.10;;;17.70;68.80;;;;;;5054129;28;20195;-51
2023/06/23 08:17:27;;;;;;;0.10;0.10;;;17.70;69.50;;;;;;5053859;28;20216;-53
2023/06/23 08:19:58;;;;;;;0.10;0.10;;;17.70;68.60;;;;;;5052849;28;20223;-55
2023/06/23 08:22:30;;;;;;;0.00;0.00;;;17.70;68.70;;;;;;5053545;28;20261;-54
2023/06/23 08:25:01;;;;;;;0.08;0.08;;;17.70;68.60;;;;;;5033654;28;20606;-54
2023/06/23 08:27:31;;;;;;;0.00;0.00;;;17.70;68.60;;;;;;5033233;28;20289;-53
2023/06/23 08:30:02;;;;;;;0.10;0.10;;;17.70;68.70;;;;;;5045016;28;20199;-53
2023/06/23 08:32:32;;;;;;;0.10;0.10;;;17.70;68.70;;;;;;5053742;28;20258;-53
2023/06/23 08:35:03;;;;;;;0.10;0.10;;;17.70;68.70;;;;;;5052931;28;20420;-51
2023/06/23 08:37:35;;;;;;;0.10;0.10;;;17.70;68.70;;;;;;5053592;28;20215;-52
2023/06/23 08:40:07;;;;;;;0.10;0.10;;;17.70;68.70;;;;;;5053300;28;20226;-51
2023/06/23 08:42:37;;;;;;;0.20;0.20;;;17.70;68.70;;;;;;5053109;28;20613;-53
2023/06/23 08:45:09;;;;;;;0.10;0.10;;;17.70;68.70;;;;;;5053343;28;20257;-52
2023/06/23 08:47:44;;;;;;;0.10;0.10;;;17.70;68.80;;;;;;5052661;28;20881;-53
2023/06/23 08:50:17;;;;;;;0.10;0.10;;;17.70;68.70;;;;;;5052641;28;20547;-53
2023/06/23 08:52:50;;;;;;;0.10;0.10;;;17.70;68.70;;;;;;5053278;28;20203;-55
2023/06/23 08:55:23;;;;;;;0.03;0.03;;;17.70;68.60;;;;;;5053206;28;20605;-52
2023/06/23 08:57:56;;;;;;;0.08;0.08;;;17.70;68.60;;;;;;5052903;28;20288;-54
2023/06/23 09:00:27;;;;;;;0.05;0.05;;;17.70;68.60;;;;;;5053279;28;20224;-50
2023/06/23 09:02:58;;;;;;;0.10;0.10;;;17.70;68.60;;;;;;5053158;28;20196;-50
2023/06/23 09:05:28;;;;;;;0.10;0.10;;;17.70;68.60;;;;;;5052396;28;20200;-55
2023/06/23 09:08:01;;;;;;;0.00;0.00;;;17.70;68.50;;;;;;5052638;28;20228;-50
2023/06/23 09:10:33;;;;;;;0.10;0.10;;;17.70;68.50;;;;;;5052261;28;20245;-52
2023/06/23 09:13:23;;;;;;;0.10;0.10;;;17.70;68.60;;;;;;5052681;28;20253;-51
2023/06/23 09:15:54;;;;;;;0.10;0.10;;;17.70;69.40;;;;;;5052170;28;20191;-50
2023/06/23 09:18:25;;;;;;;0.10;0.10;;;17.70;68.60;;;;;;5052583;28;20575;-49
2023/06/23 09:20:55;;;;;;;0.00;0.00;;;17.70;68.60;;;;;;5052032;28;20227;-50
2023/06/23 09:23:30;;;;;;;0.05;0.05;;;17.60;68.60;;;;;;5052221;28;20196;-51
2023/06/23 09:26:03;;;;;;;0.10;0.10;;;17.70;68.70;;;;;;5052285;28;20209;-49
2023/06/23 09:28:35;;;;;;;0.00;0.00;;;17.60;68.60;;;;;;5052304;28;20255;-48
2023/06/23 09:31:12;;;;;;;0.10;0.10;;;17.60;68.50;;;;;;5052654;28;20192;-50
2023/06/23 09:33:51;;;;;;;0.10;0.10;;;17.60;68.50;;;;;;5051657;28;20538;-51
2023/06/23 09:36:22;;;;;;;0.10;0.10;;;17.60;68.50;;;;;;5052181;28;20200;-51
2023/06/23 09:38:55;;;;;;;0.10;0.10;;;17.70;68.50;;;;;;5051893;28;20215;-50
2023/06/23 09:41:27;;;;;;;0.05;0.05;;;17.70;68.50;;;;;;5051655;28;20277;-51
2023/06/23 09:43:58;;;;;;;0.00;0.00;;;17.60;68.50;;;;;;5052153;28;20238;-51
2023/06/23 09:46:32;;;;;;;0.05;0.05;;;17.70;68.50;;;;;;5051810;28;20294;-49
2023/06/23 09:49:03;;;;;;;0.20;0.20;;;17.70;68.50;;;;;;5051474;28;20314;-50
2023/06/23 09:51:39;;;;;;;0.00;0.00;;;17.60;68.40;;;;;;5052312;28;20204;-50
2023/06/23 09:54:12;;;;;;;0.05;0.05;;;17.60;68.50;;;;;;5052060;28;20206;-50
2023/06/23 09:56:43;;;;;;;0.08;0.08;;;17.60;68.50;;;;;;5052153;28;20610;-51
2023/06/23 09:59:18;;;;;;;0.00;0.00;;;17.70;68.50;;;;;;5049199;28;20260;-50
2023/06/23 10:01:50;;;;;;;0.10;0.10;;;17.60;69.30;;;;;;5051743;28;20230;-49
2023/06/23 10:04:21;;;;;;;0.00;0.00;;;17.60;68.50;;;;;;5051474;28;20195;-52
2023/06/23 10:06:51;;;;;;;0.10;0.10;;;17.60;68.50;;;;;;5051985;28;20195;-53
2023/06/23 10:09:26;;;;;;;0.10;0.10;;;17.60;68.40;;;;;;5051557;28;20269;-52
2023/06/23 10:11:57;;;;;;;0.08;0.08;;;17.60;68.50;;;;;;5051591;28;20195;-50
2023/06/23 10:14:28;;;;;;;0.10;0.10;;;17.60;68.40;;;;;;5051781;28;20601;-53
2023/06/23 10:16:58;;;;;;;0.03;0.03;;;17.60;68.40;;;;;;5051696;28;20199;-51
2023/06/23 10:19:29;;;;;;;0.10;0.10;;;17.70;68.40;;;;;;5050720;28;20277;-49
2023/06/23 10:22:00;;;;;;;0.10;0.10;;;17.60;68.30;;;;;;5051604;28;20249;-53
2023/06/23 10:24:34;;;;;;;0.10;0.10;;;17.60;68.40;;;;;;5051488;28;20203;-52
2023/06/23 10:27:06;;;;;;;0.10;0.10;;;17.60;68.30;;;;;;5051939;28;20282;-55
2023/06/23 10:29:41;;;;;;;0.10;0.10;;;17.60;68.30;;;;;;5051546;28;20231;-53
2023/06/23 10:32:14;;;;;;;0.10;0.10;;;17.60;68.40;;;;;;5051172;28;20223;-56
2023/06/23 10:34:45;;;;;;;0.10;0.10;;;17.60;68.40;;;;;;5050996;28;20245;-54
2023/06/23 10:37:20;;;;;;;0.10;0.10;;;17.60;68.40;;;;;;5051321;28;20206;-55
2023/06/23 10:39:58;;;;;;;0.10;0.10;;;17.60;68.50;;;;;;5051245;28;20198;-53
2023/06/23 10:42:34;;;;;;;0.10;0.10;;;17.60;68.40;;;;;;5051414;28;20269;-55
2023/06/23 10:45:04;;;;;;;0.10;0.10;;;17.60;68.50;;;;;;5052021;28;20195;-55
2023/06/23 10:47:35;;;;;;;0.10;0.10;;;17.60;68.40;;;;;;5051111;28;20219;-55
2023/06/23 10:50:06;;;;;;;0.10;0.10;;;17.60;68.40;;;;;;5050689;28;20245;-54
2023/06/23 10:52:37;;;;;;;0.05;0.05;;;17.60;68.40;;;;;;5051187;28;20199;-54
2023/06/23 10:55:41;;;;;;;0.08;0.08;;;17.60;68.40;;;;;;5051443;28;20249;-55
2023/06/23 10:58:13;;;;;;;0.05;0.05;;;17.60;68.40;;;;;;5047279;28;20245;-55
2023/06/23 11:00:48;;;;;;;0.10;0.10;;;17.60;68.30;;;;;;5051178;28;20227;-56
2023/06/23 11:03:34;;;;;;;0.10;0.10;;;17.60;68.30;;;;;;5049571;28;20249;-54
2023/06/23 11:06:08;;;;;;;0.10;0.10;;;17.60;68.40;;;;;;5050896;28;20196;-55
2023/06/23 11:08:40;;;;;;;0.10;0.10;;;17.60;68.40;;;;;;5050088;28;20210;-55
2023/06/23 11:11:15;;;;;;;0.10;0.10;;;17.60;68.40;;;;;;5050847;28;20191;-55
2023/06/23 11:13:49;;;;;;;0.10;0.10;;;17.60;68.50;;;;;;5050554;28;20195;-54
2023/06/23 11:16:21;;;;;;;0.10;0.10;;;17.60;68.50;;;;;;5050410;28;20188;-53
2023/06/23 11:18:57;;;;;;;0.10;0.10;;;17.50;68.40;;;;;;5050484;28;20667;-56
2023/06/23 11:21:35;;;;;;;0.10;0.10;;;17.60;68.60;;;;;;5050452;28;20721;-53
2023/06/23 11:24:17;;;;;;;0.05;0.05;;;17.50;68.50;;;;;;5050446;28;20678;-55
2023/06/23 11:26:55;;;;;;;0.10;0.10;;;17.50;68.50;;;;;;5050459;28;20655;-55
2023/06/23 11:29:26;;;;;;;0.10;0.10;;;17.50;68.50;;;;;;5029477;28;20219;-55
2023/06/23 11:32:07;;;;;;;0.10;0.10;;;17.50;68.40;;;;;;5068827;28;20260;-55
2023/06/23 11:34:56;;;;;;;0.10;0.10;;;17.50;68.40;;;;;;5031255;28;20200;-53
2023/06/23 11:37:29;;;;;;;0.05;0.05;;;17.60;68.50;;;;;;5037495;28;20249;-52
2023/06/23 11:40:00;;;;;;;0.10;0.10;;;17.60;68.50;;;;;;5054278;28;20262;-52
2023/06/23 11:42:33;;;;;;;0.20;0.20;;;17.50;68.50;;;;;;5053447;28;20278;-56
2023/06/23 11:45:03;;;;;;;0.10;0.10;;;17.60;68.60;;;;;;5054265;28;20199;-51
2023/06/23 11:47:34;;;;;;;0.10;0.10;;;17.60;68.70;;;;;;5052270;28;20212;-54
2023/06/23 11:50:06;;;;;;;0.10;0.10;;;17.60;68.70;;;;;;5054122;28;20199;-55
2023/06/23 11:52:36;;;;;;;0.10;0.10;;;17.50;68.60;;;;;;5053428;28;20234;-51
2023/06/23 11:55:08;;;;;;;0.10;0.10;;;17.50;68.70;;;;;;5053685;28;20214;-53
2023/06/23 11:57:40;;;;;;;0.10;0.10;;;17.50;68.70;;;;;;5053894;28;20211;-53
2023/06/23 12:00:13;;;;;;;0.10;0.10;;;17.60;68.80;;;;;;5053699;28;20609;-53
2023/06/23 12:02:46;;;;;;;0.10;0.10;;;17.50;68.70;;;;;;5053281;28;20188;-52
2023/06/23 12:05:17;;;;;;;0.08;0.08;;;17.50;68.70;;;;;;5056134;28;20511;-50
2023/06/23 12:07:49;;;;;;;0.10;0.10;;;17.50;68.60;;;;;;5067781;28;20215;-54
2023/06/23 12:10:20;;;;;;;0.00;0.00;;;17.50;68.60;;;;;;5053554;28;20204;-54
2023/06/23 12:12:56;;;;;;;0.10;0.10;;;17.60;68.70;;;;;;5053216;28;20277;-54
2023/06/23 12:15:28;;;;;;;0.10;0.10;;;17.50;68.60;;;;;;5053874;28;20260;-53
2023/06/23 12:18:00;;;;;;;0.10;0.10;;;17.60;68.70;;;;;;5052809;28;20257;-50
2023/06/23 12:20:31;;;;;;;0.10;0.10;;;17.60;68.70;;;;;;5053302;28;20211;-53
2023/06/23 12:23:05;;;;;;;0.10;0.10;;;17.60;68.70;;;;;;5057286;28;20635;-53
2023/06/23 12:25:36;;;;;;;0.10;0.10;;;17.60;68.70;;;;;;5073381;28;20199;-55
2023/06/23 12:28:13;;;;;;;0.10;0.10;;;17.60;68.80;;;;;;5066005;28;20664;-51
2023/06/23 12:30:44;;;;;;;0.17;0.17;;;17.60;68.90;;;;;;5052999;28;20696;-53
2023/06/23 12:33:18;;;;;;;0.10;0.10;;;17.60;68.90;;;;;;5052710;28;20226;-52
2023/06/23 12:36:00;;;;;;;0.10;0.10;;;17.60;69.00;;;;;;5052887;28;20204;-55
2023/06/23 12:38:31;;;;;;;0.10;0.10;;;17.60;69.00;;;;;;5052621;28;20269;-54
2023/06/23 12:41:16;;;;;;;0.10;0.10;;;17.60;68.90;;;;;;5052728;28;20266;-52
2023/06/23 12:43:50;;;;;;;0.10;0.10;;;17.60;68.90;;;;;;5053062;28;20647;-49
2023/06/23 12:46:23;;;;;;;0.03;0.03;;;17.60;68.80;;;;;;5052145;28;20211;-53
2023/06/23 12:48:55;;;;;;;0.13;0.13;;;17.60;68.80;;;;;;5053537;28;20223;-50
2023/06/23 12:51:35;;;;;;;0.10;0.10;;;17.60;68.80;;;;;;5052766;28;20568;-54
2023/06/23 12:54:06;;;;;;;0.10;0.10;;;17.60;68.70;;;;;;5065387;28;20195;-54
2023/06/23 12:56:37;;;;;;;0.00;0.00;;;17.50;68.70;;;;;;5073221;28;20268;-55
2023/06/23 12:59:09;;;;;;;0.10;0.10;;;17.60;68.80;;;;;;5059301;28;20609;-54
2023/06/23 13:01:40;;;;;;;0.10;0.10;;;17.60;68.80;;;;;;5052369;28;20230;-55
2023/06/23 13:04:11;;;;;;;0.10;0.10;;;17.60;68.90;;;;;;5052803;28;20253;-57
2023/06/23 13:06:41;;;;;;;0.10;0.10;;;17.60;68.90;;;;;;5052665;28;20248;-56
2023/06/23 13:09:12;;;;;;;0.10;0.10;;;17.60;68.90;;;;;;5053189;28;20265;-56
2023/06/23 13:11:42;;;;;;;0.10;0.10;;;17.60;69.00;;;;;;5052161;28;20655;-54
2023/06/23 13:14:15;;;;;;;0.10;0.10;;;17.50;68.90;;;;;;5052974;28;20199;-54
2023/06/23 13:16:45;;;;;;;0.10;0.10;;;17.50;68.90;;;;;;5052923;28;20199;-56
2023/06/23 13:19:16;;;;;;;0.10;0.10;;;17.50;68.90;;;;;;5052492;28;20219;-55